createdAt,value
2019-02-27T00:02:22.749Z,71.27
2019-02-27T00:04:47.561Z,68.07
2019-02-27T00:07:14.402Z,87.43
2019-02-27T00:09:41.107Z,73.80
2019-02-27T00:12:07.929Z,73.53
2019-02-27T00:14:34.721Z,69.47
2019-02-27T00:17:01.576Z,72.50
2019-02-27T00:19:31.099Z,64.93
2019-02-27T00:21:56.801Z,86.87
2019-02-27T00:24:23.653Z,80.97
2019-02-27T00:26:50.454Z,84.27
2019-02-27T00:29:17.206Z,91.73
2019-02-27T00:31:46.032Z,79.77
2019-02-27T00:34:12.257Z,86.80
2019-02-27T00:36:39.077Z,98.37
2019-02-27T00:39:05.791Z,78.03
2019-02-27T00:41:32.446Z,65.83
2019-02-27T00:44:01.443Z,86.30
2019-02-27T00:46:27.513Z,100.80
2019-02-27T00:48:54.207Z,87.43
2019-02-27T00:51:20.934Z,82.27
2019-02-27T00:53:47.771Z,72.10
2019-02-27T00:56:14.625Z,71.33
2019-02-27T00:58:41.501Z,73.43
2019-02-27T01:01:10.040Z,83.97
2019-02-27T01:03:36.681Z,78.23
2019-02-27T01:06:03.406Z,83.57
2019-02-27T01:08:30.360Z,87.43
2019-02-27T01:10:57.202Z,87.43
2019-02-27T01:13:23.951Z,81.77
2019-02-27T01:15:50.786Z,74.77
2019-02-27T01:18:17.630Z,89.73
2019-02-27T01:20:46.451Z,80.30
2019-02-27T01:23:12.846Z,88.87
2019-02-27T01:25:39.625Z,81.60
2019-02-27T01:28:10.869Z,61.90
2019-02-27T01:30:34.797Z,76.47
2019-02-27T01:33:03.932Z,75.43
2019-02-27T01:35:30.021Z,81.77
2019-02-27T01:37:56.753Z,89.80
2019-02-27T01:40:23.600Z,91.40
2019-02-27T01:42:50.333Z,63.17
2019-02-27T01:45:20.728Z,102.50
2019-02-27T01:47:45.770Z,73.73
2019-02-27T01:50:12.606Z,65.60
2019-02-27T01:52:39.463Z,73.97
2019-02-27T01:55:06.184Z,74.20
2019-02-27T01:57:34.108Z,71.30
2019-02-27T02:00:01.401Z,73.13
2019-02-27T02:02:28.136Z,73.00
2019-02-27T02:04:54.994Z,76.57
2019-02-27T02:07:21.835Z,102.87
2019-02-27T02:09:48.681Z,93.37
2019-02-27T02:12:15.424Z,98.07
2019-02-27T02:14:42.345Z,83.63
2019-02-27T02:17:09.088Z,79.03
2019-02-27T02:19:35.943Z,69.80
2019-02-27T02:22:02.787Z,69.77
2019-02-27T02:24:29.720Z,71.60
2019-02-27T02:26:56.417Z,94.50
2019-02-27T02:29:23.200Z,89.60
2019-02-27T02:31:50.040Z,75.37
2019-02-27T02:34:16.884Z,70.43
2019-02-27T02:36:43.613Z,71.50
2019-02-27T02:39:10.366Z,84.53
2019-02-27T02:41:37.101Z,64.77
2019-02-27T02:44:03.944Z,80.17
2019-02-27T02:46:30.793Z,80.23
2019-02-27T02:48:57.625Z,66.13
2019-02-27T02:51:28.647Z,64.50
2019-02-27T02:53:52.951Z,69.50
2019-02-27T02:56:23.772Z,59.33
2019-02-27T02:58:48.879Z,76.70
2019-02-27T03:01:15.702Z,76.30
2019-02-27T03:03:42.468Z,58.17
2019-02-27T03:06:09.430Z,70.93
2019-02-27T03:08:36.142Z,68.50
2019-02-27T03:11:02.986Z,64.83
2019-02-27T03:13:29.723Z,55.43
2019-02-27T03:15:56.472Z,73.50
2019-02-27T03:18:26.296Z,65.60
2019-02-27T03:20:52.452Z,80.37
2019-02-27T03:23:20.186Z,89.60
2019-02-27T03:25:46.896Z,84.40
2019-02-27T03:28:13.649Z,76.17
2019-02-27T03:30:40.500Z,50.23
2019-02-27T03:33:07.230Z,76.00
2019-02-27T03:35:34.071Z,68.93
2019-02-27T03:38:00.913Z,76.67
2019-02-27T03:40:27.763Z,54.50
2019-02-27T03:42:54.596Z,57.87
2019-02-27T03:45:21.291Z,57.87
2019-02-27T03:47:51.623Z,62.33
2019-02-27T03:50:16.443Z,61.63
2019-02-27T03:52:43.292Z,72.50
2019-02-27T03:55:10.139Z,53.73
2019-02-27T03:57:37.509Z,64.83
2019-02-27T04:00:04.755Z,64.53
2019-02-27T04:02:31.583Z,51.13
2019-02-27T04:05:05.412Z,43.60
2019-02-27T04:07:31.495Z,66.07
2019-02-27T04:09:55.414Z,58.27
2019-02-27T04:12:23.156Z,67.93
2019-02-27T04:14:49.995Z,58.53
2019-02-27T04:17:16.716Z,78.80
2019-02-27T04:19:43.473Z,56.03
2019-02-27T04:22:10.201Z,56.00
2019-02-27T04:24:37.034Z,65.77
2019-02-27T04:27:03.688Z,53.20
2019-02-27T04:29:30.417Z,52.33
2019-02-27T04:31:57.266Z,57.70
2019-02-27T04:34:24.148Z,64.70
2019-02-27T04:36:50.939Z,54.80
2019-02-27T04:39:17.688Z,59.57
2019-02-27T04:41:44.420Z,51.07
2019-02-27T04:44:11.275Z,53.83
2019-02-27T04:46:38.115Z,51.33
2019-02-27T04:49:05.227Z,48.23
2019-02-27T04:51:32.104Z,45.63
2019-02-27T04:53:58.975Z,55.70
2019-02-27T04:56:25.786Z,49.73
2019-02-27T04:58:52.619Z,55.70
2019-02-27T05:01:19.456Z,57.43
2019-02-27T05:03:46.208Z,71.63
2019-02-27T05:06:14.390Z,62.10
2019-02-27T05:08:41.618Z,67.13
2019-02-27T05:11:08.361Z,43.03
2019-02-27T05:13:35.216Z,39.23
2019-02-27T05:16:01.939Z,51.30
2019-02-27T05:18:29.492Z,53.43
2019-02-27T05:20:56.747Z,47.37
2019-02-27T05:23:23.391Z,57.40
2019-02-27T05:25:50.230Z,52.00
2019-02-27T05:28:17.112Z,51.57
2019-02-27T05:30:45.337Z,54.13
2019-02-27T05:33:12.191Z,62.13
2019-02-27T05:35:38.926Z,46.53
2019-02-27T05:38:05.770Z,45.97
2019-02-27T05:40:32.517Z,38.73
2019-02-27T05:42:59.246Z,44.83
2019-02-27T05:45:30.390Z,85.03
2019-02-27T05:47:54.378Z,58.97
2019-02-27T05:50:21.336Z,55.87
2019-02-27T05:52:48.893Z,45.27
2019-02-27T05:55:16.328Z,48.23
2019-02-27T05:57:43.059Z,49.17
2019-02-27T06:00:09.822Z,55.57
2019-02-27T06:02:36.653Z,39.73
2019-02-27T06:05:03.472Z,53.83
2019-02-27T06:07:30.964Z,51.50
2019-02-27T06:09:58.052Z,59.93
2019-02-27T06:12:25.147Z,59.00
2019-02-27T06:14:54.833Z,53.13
2019-02-27T06:17:20.494Z,67.10
2019-02-27T06:19:47.410Z,53.63
2019-02-27T06:22:14.157Z,55.97
2019-02-27T06:24:43.129Z,58.73
2019-02-27T06:27:09.360Z,60.57
2019-02-27T06:29:35.998Z,67.00
2019-02-27T06:32:02.747Z,60.57
2019-02-27T06:34:29.474Z,70.53
2019-02-27T06:36:56.223Z,73.10
2019-02-27T06:39:23.265Z,75.17
2019-02-27T06:41:50.440Z,69.57
2019-02-27T06:44:18.997Z,66.97
2019-02-27T06:46:45.748Z,65.57
2019-02-27T06:49:17.257Z,66.50
2019-02-27T06:51:41.057Z,67.37
2019-02-27T06:54:07.756Z,70.43
2019-02-27T06:56:34.543Z,66.07
2019-02-27T06:59:01.386Z,54.07
2019-02-27T07:01:28.228Z,70.40
2019-02-27T07:03:55.077Z,64.13
2019-02-27T07:06:22.260Z,61.27
2019-02-27T07:08:48.947Z,68.07
2019-02-27T07:11:15.799Z,58.73
2019-02-27T07:13:42.505Z,71.77
2019-02-27T07:16:09.617Z,67.90
2019-02-27T07:18:36.554Z,60.70
2019-02-27T07:21:04.542Z,68.00
2019-02-27T07:23:31.335Z,59.97
2019-02-27T07:25:58.076Z,55.90
2019-02-27T07:28:24.934Z,59.37
2019-02-27T07:30:51.749Z,70.17
2019-02-27T07:33:18.611Z,73.67
2019-02-27T07:35:45.441Z,62.33
2019-02-27T07:38:12.281Z,64.70
2019-02-27T07:40:42.702Z,71.43
2019-02-27T07:43:07.503Z,78.63
2019-02-27T07:45:34.346Z,70.93
2019-02-27T07:48:01.188Z,58.20
2019-02-27T07:50:27.878Z,78.70
2019-02-27T07:52:54.660Z,66.90
2019-02-27T07:55:22.895Z,70.47
2019-02-27T07:57:49.781Z,56.97
2019-02-27T08:00:16.631Z,66.27
2019-02-27T08:02:43.470Z,58.47
2019-02-27T08:05:10.461Z,59.83
2019-02-27T08:07:37.249Z,57.40
2019-02-27T08:10:04.782Z,51.73
2019-02-27T08:12:31.595Z,57.57
2019-02-27T08:14:59.726Z,68.03
2019-02-27T08:17:26.830Z,73.63
2019-02-27T08:19:53.613Z,72.70
2019-02-27T08:22:20.346Z,70.43
2019-02-27T08:24:47.194Z,62.17
2019-02-27T08:27:14.032Z,75.30
2019-02-27T08:29:40.874Z,70.87
2019-02-27T08:32:07.571Z,70.63
2019-02-27T08:34:34.341Z,54.47
2019-02-27T08:37:01.094Z,64.30
2019-02-27T08:39:27.935Z,85.43
2019-02-27T08:41:54.764Z,68.10
2019-02-27T08:44:21.505Z,87.07
2019-02-27T08:46:48.254Z,75.60
2019-02-27T08:49:15.194Z,80.43
2019-02-27T08:51:42.596Z,77.67
2019-02-27T08:54:09.397Z,86.17
2019-02-27T08:56:36.106Z,65.67
2019-02-27T08:59:05.095Z,64.43
2019-02-27T09:01:31.256Z,61.87
2019-02-27T09:03:57.978Z,61.10
2019-02-27T09:06:27.326Z,78.40
2019-02-27T09:08:53.308Z,80.63
2019-02-27T09:11:20.051Z,91.20
2019-02-27T09:13:46.785Z,89.07
2019-02-27T09:16:13.629Z,79.63
2019-02-27T09:18:40.463Z,71.67
2019-02-27T09:21:07.197Z,69.17
2019-02-27T09:23:33.955Z,73.87
2019-02-27T09:26:02.851Z,71.05
2019-02-27T09:28:29.170Z,75.10
2019-02-27T09:30:55.997Z,71.70
2019-02-27T09:33:22.750Z,84.90
2019-02-27T09:35:49.447Z,75.03
2019-02-27T09:38:16.116Z,78.80
2019-02-27T09:40:42.832Z,71.15
2019-02-27T09:43:09.608Z,77.95
2019-02-27T09:45:36.452Z,74.53
2019-02-27T09:48:03.286Z,66.28
2019-02-27T09:50:30.015Z,71.67
2019-02-27T09:52:56.657Z,75.95
2019-02-27T09:55:23.391Z,70.57
2019-02-27T09:57:50.135Z,73.65
2019-02-27T10:00:16.882Z,69.47
2019-02-27T10:02:46.291Z,72.67
2019-02-27T10:05:12.505Z,62.08
2019-02-27T10:07:39.443Z,75.15
2019-02-27T10:10:10.243Z,99.45
2019-02-27T10:12:34.532Z,73.45
2019-02-27T10:15:01.198Z,77.25
2019-02-27T10:17:28.608Z,82.12
2019-02-27T10:19:55.497Z,71.05
2019-02-27T10:22:22.349Z,73.12
2019-02-27T10:24:49.192Z,77.78
2019-02-27T10:27:16.039Z,83.97
2019-02-27T10:29:42.735Z,80.47
2019-02-27T10:32:09.503Z,76.02
2019-02-27T10:34:36.454Z,71.90
2019-02-27T10:37:03.239Z,72.35
2019-02-27T10:39:30.142Z,75.67
2019-02-27T10:41:56.896Z,68.22
2019-02-27T10:44:24.218Z,77.15
2019-02-27T10:46:52.106Z,67.40
2019-02-27T10:49:21.409Z,82.97
2019-02-27T10:51:47.328Z,75.97
2019-02-27T10:54:14.150Z,67.50
2019-02-27T10:56:40.986Z,65.12
2019-02-27T10:59:07.760Z,62.35
2019-02-27T11:01:36.346Z,61.80
2019-02-27T11:04:03.142Z,65.00
2019-02-27T11:06:34.050Z,55.30
2019-02-27T11:08:59.084Z,58.78
2019-02-27T11:11:26.035Z,63.45
2019-02-27T11:13:55.275Z,64.85
2019-02-27T11:16:22.103Z,60.98
2019-02-27T11:18:48.921Z,59.83
2019-02-27T11:21:15.767Z,63.48
2019-02-27T11:23:42.604Z,61.10
2019-02-27T11:26:09.445Z,59.77
2019-02-27T11:28:36.175Z,49.15
2019-02-27T11:31:02.938Z,66.55
2019-02-27T11:33:32.529Z,63.17
2019-02-27T11:35:58.242Z,53.42
2019-02-27T11:38:25.521Z,66.82
2019-02-27T11:40:52.516Z,69.07
2019-02-27T11:43:19.283Z,62.70
2019-02-27T11:45:46.129Z,58.87
2019-02-27T11:48:12.962Z,60.83
2019-02-27T11:50:39.693Z,53.25
2019-02-27T11:53:06.335Z,62.50
2019-02-27T11:55:33.178Z,49.95
2019-02-27T11:58:04.575Z,44.25
2019-02-27T12:00:28.507Z,51.98
2019-02-27T12:02:55.248Z,62.33
2019-02-27T12:05:22.080Z,58.42
2019-02-27T12:07:51.220Z,58.58
2019-02-27T12:10:17.305Z,53.73
2019-02-27T12:12:44.148Z,51.10
2019-02-27T12:15:10.889Z,56.45
2019-02-27T12:17:37.611Z,45.05
2019-02-27T12:20:04.372Z,39.27
2019-02-27T12:22:32.938Z,59.08
2019-02-27T12:24:59.590Z,66.92
2019-02-27T12:27:47.903Z,61.63
2019-02-27T12:29:54.689Z,75.90
2019-02-27T12:32:21.953Z,66.35
2019-02-27T12:34:49.410Z,50.38
2019-02-27T12:37:27.520Z,63.48
2019-02-27T12:39:47.279Z,56.73
2019-02-27T12:42:13.095Z,59.60
2019-02-27T12:44:39.849Z,56.58
2019-02-27T12:47:06.688Z,51.42
2019-02-27T12:49:33.531Z,55.67
2019-02-27T12:52:00.382Z,50.10
2019-02-27T12:54:27.495Z,65.47
2019-02-27T12:56:54.416Z,59.38
2019-02-27T12:59:21.202Z,61.18
2019-02-27T13:01:50.777Z,75.93
2019-02-27T13:04:19.735Z,72.37
2019-02-27T13:06:44.825Z,72.10
2019-02-27T13:09:11.641Z,70.70
2019-02-27T13:11:39.076Z,64.67
2019-02-27T13:14:06.953Z,67.20
2019-02-27T13:16:33.896Z,91.90
2019-02-27T13:19:00.639Z,80.53
2019-02-27T13:21:27.396Z,84.07
2019-02-27T13:23:55.737Z,76.93
2019-02-27T13:26:22.603Z,69.87
2019-02-27T13:28:49.722Z,72.67
2019-02-27T13:31:17.156Z,71.23
2019-02-27T13:33:44.260Z,73.77
2019-02-27T13:36:12.761Z,82.50
2019-02-27T13:38:39.681Z,85.47
2019-02-27T13:41:07.674Z,90.70
2019-02-27T13:43:34.802Z,84.53
2019-02-27T13:46:01.549Z,77.83
2019-02-27T13:48:28.542Z,84.10
2019-02-27T13:50:56.677Z,75.90
2019-02-27T13:53:26.604Z,73.47
2019-02-27T13:55:52.155Z,76.70
2019-02-27T13:58:18.851Z,77.83
2019-02-27T14:00:45.758Z,79.53
2019-02-27T14:03:13.327Z,89.23
2019-02-27T14:05:40.114Z,76.00
2019-02-27T14:08:06.831Z,72.73
2019-02-27T14:10:33.497Z,84.40
2019-02-27T14:13:00.300Z,63.57
2019-02-27T14:15:28.065Z,69.67
2019-02-27T14:17:55.000Z,91.17
2019-02-27T14:20:21.736Z,79.23
2019-02-27T14:22:48.564Z,88.00
2019-02-27T14:25:15.502Z,103.37
2019-02-27T14:27:42.353Z,68.63
2019-02-27T14:30:09.204Z,80.53
2019-02-27T14:32:35.926Z,99.67
2019-02-27T14:35:02.667Z,74.80
2019-02-27T14:37:29.410Z,82.17
2019-02-27T14:39:56.175Z,72.60
2019-02-27T14:42:22.878Z,89.43
2019-02-27T14:44:49.548Z,97.77
2019-02-27T14:47:16.526Z,76.57
2019-02-27T14:49:44.016Z,86.87
2019-02-27T14:52:14.055Z,93.20
2019-02-27T14:54:39.101Z,83.07
2019-02-27T14:57:05.899Z,71.83
2019-02-27T14:59:32.619Z,72.63
2019-02-27T15:01:59.462Z,79.07
2019-02-27T15:04:26.309Z,73.87
2019-02-27T15:06:53.149Z,73.33
2019-02-27T15:09:19.987Z,74.67
2019-02-27T15:11:48.123Z,61.47
2019-02-27T15:14:15.300Z,65.10
2019-02-27T15:16:42.042Z,67.97
2019-02-27T15:19:08.778Z,81.57
2019-02-27T15:21:35.534Z,71.77
2019-02-27T15:24:02.256Z,69.13
2019-02-27T15:26:29.000Z,67.07
2019-02-27T15:28:55.768Z,74.03
2019-02-27T15:31:22.592Z,71.30
2019-02-27T15:33:49.535Z,71.10
2019-02-27T15:36:16.276Z,72.13
2019-02-27T15:38:46.151Z,60.50
2019-02-27T15:41:11.591Z,74.13
2019-02-27T15:43:38.322Z,68.17
2019-02-27T15:46:05.180Z,60.63
2019-02-27T15:48:32.007Z,62.10
2019-02-27T15:50:58.852Z,82.17
2019-02-27T15:53:25.581Z,77.07
2019-02-27T15:55:52.240Z,60.87
2019-02-27T15:58:18.958Z,94.07
2019-02-27T16:00:45.707Z,78.67
2019-02-27T16:03:12.455Z,85.90
2019-02-27T16:05:40.157Z,82.73
2019-02-27T16:08:06.952Z,68.60
2019-02-27T16:10:33.812Z,79.00
2019-02-27T16:13:01.408Z,62.27
2019-02-27T16:15:28.394Z,92.37
2019-02-27T16:17:55.094Z,63.80
2019-02-27T16:20:21.871Z,89.97
2019-02-27T16:22:48.775Z,85.47
2019-02-27T16:25:18.389Z,61.43
2019-02-27T16:27:43.983Z,62.03
2019-02-27T16:30:10.773Z,56.30
2019-02-27T16:32:37.636Z,94.77
2019-02-27T16:35:07.393Z,91.20
2019-02-27T16:37:32.850Z,56.40
2019-02-27T16:39:59.795Z,57.70
2019-02-27T16:42:26.536Z,58.40
2019-02-27T16:44:54.465Z,54.27
2019-02-27T16:47:23.699Z,63.03
2019-02-27T16:49:50.653Z,63.30
2019-02-27T16:52:18.287Z,63.53
2019-02-27T16:54:45.243Z,54.07
2019-02-27T16:57:11.965Z,61.57
2019-02-27T16:59:38.761Z,60.57
2019-02-27T17:02:05.551Z,60.47
2019-02-27T17:04:34.247Z,79.13
2019-02-27T17:07:00.794Z,60.23
2019-02-27T17:09:27.623Z,75.07
2019-02-27T17:11:54.478Z,73.63
2019-02-27T17:14:24.432Z,100.67
2019-02-27T17:16:49.685Z,89.37
2019-02-27T17:19:16.534Z,92.67
2019-02-27T17:21:43.228Z,108.23
2019-02-27T17:24:09.991Z,78.33
2019-02-27T17:26:39.162Z,76.53
2019-02-27T17:29:05.218Z,88.50
2019-02-27T17:31:31.956Z,90.53
2019-02-27T17:33:58.802Z,82.47
2019-02-27T17:36:25.648Z,65.77
2019-02-27T17:38:52.371Z,77.57
2019-02-27T17:41:19.113Z,75.93
2019-02-27T17:43:45.979Z,95.70
2019-02-27T17:46:12.722Z,71.97
2019-02-27T17:48:39.567Z,85.83
2019-02-27T17:51:06.691Z,72.93
2019-02-27T17:53:33.726Z,78.63
2019-02-27T17:56:00.473Z,86.17
2019-02-27T17:58:31.852Z,83.77
2019-02-27T18:00:55.615Z,80.53
2019-02-27T18:03:22.427Z,76.30
2019-02-27T18:05:49.378Z,68.50
2019-02-27T18:08:17.098Z,90.33
2019-02-27T18:10:43.991Z,99.70
2019-02-27T18:13:10.720Z,80.60
2019-02-27T18:15:37.475Z,82.27
2019-02-27T18:18:07.150Z,82.87
2019-02-27T18:20:32.688Z,78.80
2019-02-27T18:22:59.417Z,81.13
2019-02-27T18:25:26.163Z,117.13
2019-02-27T18:27:52.896Z,96.27
2019-02-27T18:30:20.041Z,89.40
2019-02-27T18:32:46.735Z,92.63
2019-02-27T18:35:13.430Z,85.10
2019-02-27T18:37:40.123Z,94.77
2019-02-27T18:40:08.359Z,98.30
2019-02-27T18:42:35.380Z,74.73
2019-02-27T18:45:03.086Z,92.40
2019-02-27T18:47:32.162Z,92.00
2019-02-27T18:49:58.474Z,106.50
2019-02-27T18:52:25.312Z,85.60
2019-02-27T18:54:54.699Z,92.97
2019-02-27T18:57:21.931Z,90.83
2019-02-27T18:59:48.730Z,92.70
2019-02-27T19:02:19.661Z,80.83
2019-02-27T19:04:44.182Z,79.90
2019-02-27T19:07:12.748Z,86.47
2019-02-27T19:09:39.745Z,85.60
2019-02-27T19:12:06.641Z,77.53
2019-02-27T19:14:36.684Z,68.33
2019-02-27T19:17:03.340Z,81.07
2019-02-27T19:19:30.205Z,84.27
2019-02-27T19:21:57.032Z,94.90
2019-02-27T19:24:27.519Z,97.10
2019-02-27T19:26:52.961Z,103.43
2019-02-27T19:29:19.702Z,95.70
2019-02-27T19:31:48.346Z,111.47
2019-02-27T19:34:15.538Z,111.83
2019-02-27T19:36:42.591Z,103.47
2019-02-27T19:39:10.206Z,85.57
2019-02-27T19:41:39.667Z,84.50
2019-02-27T19:44:06.097Z,100.70
2019-02-27T19:46:32.926Z,90.70
2019-02-27T19:49:00.891Z,91.87
2019-02-27T19:51:28.955Z,87.43
2019-02-27T19:53:56.152Z,80.23
2019-02-27T19:56:23.560Z,95.40
2019-02-27T19:58:51.267Z,110.00
2019-02-27T20:01:18.834Z,81.47
2019-02-27T20:03:45.635Z,100.67
2019-02-27T20:06:12.362Z,115.93
2019-02-27T20:08:44.468Z,90.50
2019-02-27T20:11:08.318Z,104.87
2019-02-27T20:13:35.363Z,106.10
2019-02-27T20:16:02.240Z,95.47
2019-02-27T20:18:29.027Z,98.80
2019-02-27T20:20:55.767Z,104.23
2019-02-27T20:23:25.746Z,119.17
2019-02-27T20:25:52.224Z,102.07
2019-02-27T20:28:20.524Z,123.90
2019-02-27T20:30:47.344Z,108.07
2019-02-27T20:33:17.407Z,102.60
2019-02-27T20:35:45.952Z,108.50
2019-02-27T20:38:16.006Z,106.47
2019-02-27T20:40:41.464Z,101.23
2019-02-27T20:43:08.411Z,119.87
2019-02-27T20:45:36.293Z,109.30
2019-02-27T20:48:03.119Z,85.73
2019-02-27T20:50:34.948Z,119.37
2019-02-27T20:52:59.635Z,121.47
2019-02-27T20:55:26.849Z,103.53
2019-02-27T20:57:54.271Z,83.37
2019-02-27T21:00:21.491Z,110.27
2019-02-27T21:02:50.342Z,96.97
2019-02-27T21:05:16.599Z,105.47
2019-02-27T21:07:43.787Z,101.43
2019-02-27T21:10:10.635Z,99.50
2019-02-27T21:12:40.631Z,88.57
2019-02-27T21:15:05.854Z,111.80
2019-02-27T21:17:36.108Z,130.57
2019-02-27T21:20:03.006Z,135.20
2019-02-27T21:22:29.929Z,127.20
2019-02-27T21:24:56.901Z,135.93
2019-02-27T21:27:23.638Z,118.77
2019-02-27T21:29:50.392Z,105.87
2019-02-27T21:32:17.128Z,116.73
2019-02-27T21:34:43.960Z,114.43
2019-02-27T21:37:10.870Z,95.90
2019-02-27T21:39:37.997Z,98.23
2019-02-27T21:42:05.112Z,103.27
2019-02-27T21:44:31.945Z,94.53
2019-02-27T21:46:59.598Z,96.03
2019-02-27T21:49:26.294Z,104.37
2019-02-27T21:51:53.088Z,96.67
2019-02-27T21:54:20.894Z,105.10
2019-02-27T21:56:49.211Z,114.57
2019-02-27T21:59:16.091Z,106.17
2019-02-27T22:01:43.005Z,99.57
2019-02-27T22:04:10.786Z,91.83
2019-02-27T22:06:37.579Z,89.80
2019-02-27T22:09:04.424Z,82.90
2019-02-27T22:11:31.304Z,81.07
2019-02-27T22:13:58.138Z,92.63
2019-02-27T22:16:29.482Z,113.20
2019-02-27T22:18:54.373Z,124.53
2019-02-27T22:21:21.069Z,113.57
2019-02-27T22:23:48.275Z,105.30
2019-02-27T22:26:15.335Z,95.43
2019-02-27T22:28:42.362Z,95.00
2019-02-27T22:31:09.062Z,107.27
2019-02-27T22:33:35.834Z,96.07
2019-02-27T22:36:02.570Z,82.07
2019-02-27T22:38:29.312Z,95.00
2019-02-27T22:40:56.055Z,91.10
2019-02-27T22:43:23.189Z,97.90
2019-02-27T22:45:50.964Z,89.77
2019-02-27T22:48:17.811Z,89.87
2019-02-27T22:50:45.026Z,82.23
2019-02-27T22:53:11.808Z,93.47
2019-02-27T22:55:42.156Z,84.97
2019-02-27T22:58:07.673Z,77.57
2019-02-27T23:00:34.501Z,91.73
2019-02-27T23:03:03.042Z,96.23
2019-02-27T23:05:29.797Z,83.47
2019-02-27T23:07:56.639Z,82.57
2019-02-27T23:10:23.377Z,104.40
2019-02-27T23:12:50.220Z,88.23
2019-02-27T23:15:16.962Z,89.67
2019-02-27T23:17:43.698Z,94.17
2019-02-27T23:20:10.452Z,82.33
2019-02-27T23:22:37.584Z,90.20
2019-02-27T23:25:04.323Z,100.27
2019-02-27T23:27:31.585Z,83.97
2019-02-27T23:29:58.421Z,80.60
2019-02-27T23:32:28.442Z,83.17
2019-02-27T23:34:55.599Z,88.80
2019-02-27T23:37:22.391Z,74.47
2019-02-27T23:39:49.168Z,75.00
2019-02-27T23:42:16.108Z,80.67
2019-02-27T23:44:42.860Z,76.50
2019-02-27T23:47:09.577Z,84.37
2019-02-27T23:49:39.526Z,78.73
2019-02-27T23:52:04.932Z,76.30
2019-02-27T23:54:35.417Z,89.43
2019-02-27T23:57:00.139Z,82.57
2019-02-27T23:59:26.986Z,79.77
